Time;durP1;ratioP1;P1;durP2;ratioP2;P2;SDS_P1;SDS_P2;PMS_P1;PMS_P2;Temp;Humidity;BMP_temperature;BMP_pressure;BME280_temperature;BME280_humidity;BME280_pressure;Samples;Min_cycle;Max_cycle;Signal;HPM_P1;HPM_P2
2021/05/11 03:17:56;;;;;;;10.25;3.50;;;;;;;16.26;59.07;100077.09;5271502;26;20117;-80
2021/05/11 03:20:23;;;;;;;4.60;3.05;;;;;;;16.27;59.23;100070.91;5280223;27;20073;-80
2021/05/11 03:22:52;;;;;;;7.25;3.08;;;;;;;15.99;60.04;100070.97;5280511;27;20057;-80
2021/05/11 03:25:18;;;;;;;5.62;2.30;;;;;;;16.31;59.01;100072.53;5282263;27;20068;-80
2021/05/11 04:27:12;;;;;;;18.30;4.35;;;;;;;25.32;36.39;100062.19;5285532;26;20084;-80
2021/05/11 04:29:39;;;;;;;21.85;4.18;;;;;;;26.15;35.25;100058.75;5303130;27;20129;-81
2021/05/11 04:32:06;;;;;;;11.45;4.10;;;;;;;26.78;33.96;100062.00;5305563;27;20078;-80
2021/05/11 04:34:33;;;;;;;10.60;3.90;;;;;;;27.21;32.79;100062.19;5305153;27;20026;-81
2021/05/11 04:37:00;;;;;;;10.65;3.35;;;;;;;27.61;32.30;100069.72;5303972;27;20073;-82
2021/05/11 04:39:27;;;;;;;13.50;4.65;;;;;;;28.00;32.32;100071.00;5301695;27;20108;-81
2021/05/11 04:41:53;;;;;;;7.70;3.10;;;;;;;28.24;32.33;100062.66;5302442;27;20110;-81
2021/05/11 04:44:23;;;;;;;8.73;3.17;;;;;;;28.40;31.15;100059.50;5302369;27;20067;-82
2021/05/11 04:47:15;;;;;;;13.80;4.07;;;;;;;28.66;30.81;100059.97;5300878;27;20053;-82
2021/05/11 04:49:39;;;;;;;;;;;;;;;29.08;29.97;100062.62;5303963;27;20060;-82
2021/05/11 04:52:06;;;;;;;14.45;4.75;;;;;;;29.02;30.02;100055.06;5304129;27;19980;-85
2021/05/11 04:54:35;;;;;;;19.85;5.18;;;;;;;28.74;30.65;100053.91;5300850;27;20029;-83
2021/05/11 04:57:02;;;;;;;6.97;2.45;;;;;;;28.76;30.45;100051.91;5304239;27;20429;-82
2021/05/11 04:59:29;;;;;;;16.58;4.15;;;;;;;28.48;31.02;100053.47;5302903;27;20116;-83
2021/05/11 11:26:27;;;;;;;4.35;1.48;;;;;;;34.67;18.59;99886.44;5267177;26;20041;31
2021/05/11 13:49:05;;;;;;;3.50;2.05;;;;;;;39.10;14.79;99684.56;5275395;26;19988;-82
2021/05/11 13:51:32;;;;;;;3.58;1.92;;;;;;;39.25;15.75;99679.69;5300468;27;20049;-83
2021/05/11 13:54:30;;;;;;;4.70;2.08;;;;;;;39.05;14.96;99675.06;5285357;27;20055;-85
2021/05/11 14:04:02;;;;;;;6.28;2.30;;;;;;;39.38;16.04;99674.19;5279189;27;20445;-84
2021/05/11 14:20:36;;;;;;;7.43;2.80;;;;;;;37.00;18.88;99653.06;5211795;27;20097;-86
2021/05/11 14:23:55;;;;;;;;;;;;;;;;;;;;;
2021/05/11 14:26:46;;;;;;;6.00;2.47;;;;;;;37.91;16.78;99642.03;5109105;27;20134;-82
2021/05/11 14:29:36;;;;;;;3.80;2.00;;;;;;;37.94;18.32;99647.97;5112506;27;20108;-83
2021/05/11 14:32:18;;;;;;;11.05;2.60;;;;;;;38.08;17.15;99640.66;5172342;27;20155;-82
2021/05/11 14:34:47;;;;;;;2.53;1.80;;;;;;;37.72;17.59;99635.44;5170403;27;20173;-85
2021/05/11 14:37:14;;;;;;;3.28;2.08;;;;;;;37.41;17.85;99630.38;5193572;27;20117;-83
2021/05/11 14:39:41;;;;;;;5.90;2.25;;;;;;;37.66;17.81;99626.13;5234412;27;20405;-83
2021/05/11 14:42:08;;;;;;;3.03;2.35;;;;;;;37.91;16.99;99629.16;5235051;27;20058;-83
2021/05/11 14:44:35;;;;;;;5.72;2.33;;;;;;;38.03;17.38;99612.16;5234807;27;20034;-83
2021/05/11 14:47:03;;;;;;;5.75;2.25;;;;;;;38.39;16.50;99620.06;5251816;27;20083;-84
2021/05/11 14:49:31;;;;;;;4.90;2.30;;;;;;;36.94;17.65;99624.56;5280585;27;20069;-84
2021/05/11 14:51:58;;;;;;;5.90;2.22;;;;;;;37.53;19.05;99620.56;5279011;27;20105;-85
2021/05/11 14:54:28;;;;;;;2.97;1.80;;;;;;;37.42;17.35;99608.28;5280366;27;20061;-86
2021/05/11 14:56:55;;;;;;;4.80;2.30;;;;;;;37.26;17.20;99622.28;5282164;27;20360;-85
2021/05/11 14:59:23;;;;;;;6.10;2.40;;;;;;;37.32;19.11;99612.41;5283289;27;20018;-83
2021/05/11 15:01:50;;;;;;;3.90;1.83;;;;;;;37.10;18.77;99615.25;5280614;27;20080;-83
2021/05/11 15:04:17;;;;;;;5.45;2.50;;;;;;;37.28;18.09;99601.88;5280375;27;20044;-82
2021/05/11 15:06:44;;;;;;;2.75;1.90;;;;;;;37.26;18.61;99600.38;5280401;27;20072;-83
2021/05/11 15:09:12;;;;;;;6.93;2.30;;;;;;;37.18;18.52;99598.66;5280481;27;20050;-84
2021/05/11 15:11:40;;;;;;;6.62;1.80;;;;;;;37.19;18.39;99594.88;5261421;27;20112;-83
2021/05/11 15:14:07;;;;;;;4.70;1.70;;;;;;;37.39;18.74;99581.28;5280909;27;20076;-86
2021/05/11 15:16:38;;;;;;;3.30;1.75;;;;;;;37.10;17.77;99584.28;5280251;27;20072;-82
2021/05/11 15:19:06;;;;;;;3.90;2.35;;;;;;;37.23;17.61;99585.19;5278449;27;20045;-83
2021/05/11 15:21:34;;;;;;;5.32;2.28;;;;;;;37.27;18.31;99583.75;5278254;27;20046;-86
2021/05/11 15:24:02;;;;;;;3.08;1.92;;;;;;;37.00;17.81;99582.72;5278645;27;20062;-85
2021/05/11 15:26:32;;;;;;;7.35;2.30;;;;;;;37.18;17.91;99576.75;5279411;27;20105;-82
2021/05/11 15:29:01;;;;;;;6.65;2.33;;;;;;;37.00;18.44;99579.13;5280316;27;20054;-82
2021/05/11 15:31:28;;;;;;;3.42;2.20;;;;;;;36.66;18.79;99567.09;5280121;27;20053;-85
2021/05/11 15:33:56;;;;;;;4.22;2.05;;;;;;;36.18;18.97;99561.38;5275172;27;20149;-87
2021/05/11 15:36:24;;;;;;;4.15;1.70;;;;;;;36.47;18.96;99564.97;5283249;27;20057;-87
2021/05/11 15:38:51;;;;;;;4.23;1.87;;;;;;;36.48;18.17;99563.97;5282437;27;20073;-84
2021/05/11 15:41:23;;;;;;;5.97;2.37;;;;;;;36.26;18.46;99560.38;5279028;27;20196;-83
2021/05/11 15:43:49;;;;;;;4.25;1.87;;;;;;;36.15;19.13;99557.13;5279538;27;20065;-87
2021/05/11 15:46:16;;;;;;;3.50;1.75;;;;;;;36.10;19.15;99554.13;5278104;27;20363;-86
2021/05/11 15:48:43;;;;;;;6.72;1.90;;;;;;;36.05;19.53;99553.03;5278609;27;20061;-83
2021/05/11 15:51:10;;;;;;;5.62;1.95;;;;;;;35.84;19.92;99553.81;5278724;27;20136;-82
2021/05/11 15:53:38;;;;;;;6.55;2.55;;;;;;;35.82;19.56;99550.41;5277389;27;20029;-85
2021/05/11 15:56:05;;;;;;;5.37;2.47;;;;;;;35.39;19.53;99542.97;5279582;27;20492;-83
2021/05/11 15:58:33;;;;;;;5.82;2.55;;;;;;;35.55;20.24;99549.25;5277531;27;20063;-82
2021/05/11 16:01:01;;;;;;;4.00;2.15;;;;;;;35.20;20.04;99544.37;5278235;27;20077;-82
2021/05/11 16:03:32;;;;;;;5.28;2.20;;;;;;;34.06;19.46;99543.53;5276084;27;20065;-82
2021/05/11 16:06:00;;;;;;;5.47;2.60;;;;;;;34.00;20.88;99540.62;5277051;27;20066;-82
2021/05/11 16:08:28;;;;;;;5.43;2.40;;;;;;;33.23;21.04;99542.22;5275711;27;20581;-82
2021/05/11 16:10:56;;;;;;;4.75;2.42;;;;;;;33.31;21.52;99538.63;5278211;27;20033;-82
2021/05/11 16:13:25;;;;;;;2.43;2.20;;;;;;;32.81;22.96;99542.47;5280859;27;20058;-82
2021/05/11 16:15:52;;;;;;;6.00;2.42;;;;;;;32.44;22.95;99534.84;5279213;27;20141;-84
2021/05/11 16:18:20;;;;;;;6.75;3.22;;;;;;;32.43;23.16;99535.87;5276141;27;20057;-85
2021/05/11 16:20:47;;;;;;;6.05;2.33;;;;;;;32.51;22.54;99536.75;5277025;27;20054;-84
2021/05/11 16:23:14;;;;;;;4.68;1.90;;;;;;;31.73;22.51;99530.84;5277278;27;20400;-86
2021/05/11 16:25:41;;;;;;;4.37;1.98;;;;;;;32.06;22.23;99529.03;5277096;27;20069;-83
2021/05/11 16:28:08;;;;;;;2.72;1.85;;;;;;;31.63;22.54;99525.56;5277248;27;20064;-83
2021/05/11 16:30:38;;;;;;;6.15;2.22;;;;;;;31.04;22.95;99528.19;5277192;27;20049;-86
2021/05/11 16:33:09;;;;;;;4.07;2.37;;;;;;;30.39;24.14;99520.44;5275807;27;20065;-83
2021/05/11 16:35:36;;;;;;;5.97;2.37;;;;;;;30.33;23.32;99523.78;5277876;27;20064;-84
2021/05/11 16:38:03;;;;;;;7.05;2.05;;;;;;;30.52;23.61;99517.31;5277489;27;20064;-87
2021/05/11 16:40:31;;;;;;;5.45;2.42;;;;;;;29.99;23.12;99519.03;5277114;27;20074;-83
2021/05/11 16:42:57;;;;;;;8.13;2.50;;;;;;;30.33;23.24;99526.50;5277137;27;20061;-83
2021/05/11 16:45:25;;;;;;;6.30;2.83;;;;;;;30.35;23.40;99524.47;5277461;27;20077;-83
2021/05/11 16:47:54;;;;;;;7.45;2.67;;;;;;;30.48;23.50;99519.50;5277649;27;20105;-83
2021/05/11 16:50:25;;;;;;;4.68;2.30;;;;;;;30.70;23.85;99517.25;5277439;27;20050;-83
2021/05/11 16:52:54;;;;;;;5.45;2.35;;;;;;;30.41;24.30;99520.28;5258727;27;20076;-86
2021/05/11 16:55:23;;;;;;;3.47;2.30;;;;;;;30.78;24.37;99520.91;5278441;27;20136;-83
2021/05/11 16:57:50;;;;;;;1.90;1.70;;;;;;;30.81;23.49;99519.75;5278215;27;20064;-83
2021/05/11 17:00:18;;;;;;;4.65;2.22;;;;;;;30.50;24.10;99525.62;5279123;27;20116;-83
2021/05/11 17:02:45;;;;;;;8.65;2.42;;;;;;;30.50;24.11;99520.19;5278654;27;20117;-84
2021/05/11 17:05:14;;;;;;;4.47;2.28;;;;;;;30.38;24.07;99520.59;5278797;27;20080;-83
2021/05/11 17:07:41;;;;;;;5.07;2.80;;;;;;;30.47;24.46;99520.53;5277583;27;20040;-83
2021/05/11 17:10:08;;;;;;;5.82;2.40;;;;;;;30.24;25.36;99525.59;5278438;27;20056;-84
2021/05/11 17:12:35;;;;;;;2.72;1.87;;;;;;;29.92;24.92;99517.97;5278773;27;20076;-85
2021/05/11 17:15:04;;;;;;;3.58;1.83;;;;;;;30.05;24.81;99523.00;5279462;27;20069;-83
2021/05/11 17:17:32;;;;;;;2.80;2.00;;;;;;;30.32;25.00;99522.06;5278096;27;20061;-83
2021/05/11 17:19:58;;;;;;;4.68;2.28;;;;;;;30.38;24.64;99516.03;5277852;27;20448;-86
2021/05/11 17:22:25;;;;;;;6.65;2.00;;;;;;;30.21;24.88;99516.88;5277963;27;20109;-83
2021/05/11 17:24:52;;;;;;;2.25;1.80;;;;;;;29.93;26.10;99514.25;5277510;27;20134;-83
2021/05/11 17:27:19;;;;;;;6.30;2.25;;;;;;;30.27;25.59;99514.44;5276132;27;20050;-83
2021/05/11 17:29:46;;;;;;;4.95;2.30;;;;;;;30.26;25.48;99509.16;5258745;27;20088;-86
2021/05/11 17:32:16;;;;;;;3.92;2.22;;;;;;;30.16;25.86;99508.38;5277657;27;20137;-83
2021/05/11 17:34:44;;;;;;;7.32;2.47;;;;;;;29.90;26.44;99506.44;5276948;27;20069;-82
2021/05/11 17:37:12;;;;;;;4.85;2.87;;;;;;;30.19;26.61;99511.63;5276627;27;20054;-83
2021/05/11 17:39:39;;;;;;;4.18;2.95;;;;;;;30.36;26.52;99512.63;5277138;27;20061;-83
2021/05/11 17:42:08;;;;;;;4.55;2.65;;;;;;;29.79;27.66;99503.97;5277213;27;20084;-82
2021/05/11 17:44:36;;;;;;;3.78;2.45;;;;;;;30.35;26.52;99502.78;5278657;27;20061;-85
2021/05/11 17:47:03;;;;;;;5.70;3.03;;;;;;;29.91;27.45;99505.41;5277188;27;20084;-83
2021/05/11 17:49:31;;;;;;;4.65;2.65;;;;;;;29.92;27.14;99506.31;5257283;27;20120;-83
2021/05/11 17:51:59;;;;;;;6.45;2.72;;;;;;;29.88;27.76;99500.31;5277234;27;20417;-82
2021/05/11 17:54:26;;;;;;;6.35;2.62;;;;;;;29.88;27.89;99497.59;5277711;27;20474;-83
2021/05/11 17:56:52;;;;;;;9.75;3.10;;;;;;;29.88;27.92;99498.50;5276098;27;20069;-83
2021/05/11 17:59:20;;;;;;;9.57;3.33;;;;;;;30.01;28.38;99508.91;5276665;27;20060;-83
2021/05/11 18:01:47;;;;;;;191.48;20.40;;;;;;;29.93;29.24;99508.84;5276980;27;20425;-85
2021/05/11 18:04:14;;;;;;;105.45;11.73;;;;;;;29.80;29.02;99508.38;5276410;27;20112;-83
2021/05/11 18:06:41;;;;;;;31.17;4.72;;;;;;;29.72;29.27;99505.59;5276465;27;20143;-83
2021/05/11 18:09:08;;;;;;;31.08;5.80;;;;;;;29.79;28.85;99507.50;5276649;27;20073;-82
2021/05/11 18:11:35;;;;;;;53.17;6.87;;;;;;;29.59;30.59;99501.38;5276333;27;20762;-82
2021/05/11 18:14:03;;;;;;;15.93;4.22;;;;;;;29.64;30.83;99498.22;5277329;27;20120;-82
2021/05/11 18:16:29;;;;;;;6.22;3.00;;;;;;;29.35;31.18;99501.06;5276651;27;20054;-82
2021/05/11 18:18:57;;;;;;;12.13;2.97;;;;;;;29.23;31.25;99502.28;5276439;27;20400;-82
2021/05/11 18:21:24;;;;;;;8.02;2.80;;;;;;;28.57;33.03;99498.66;5257430;27;20105;-83
2021/05/11 18:23:55;;;;;;;11.25;3.40;;;;;;;28.52;32.63;99500.94;5277860;27;20497;-82
2021/05/11 18:26:24;;;;;;;4.68;3.00;;;;;;;28.52;32.70;99499.09;5253861;27;20434;-82
2021/05/11 18:28:52;;;;;;;6.62;3.92;;;;;;;28.52;33.13;99495.53;5278066;27;20116;-82
2021/05/11 18:31:19;;;;;;;9.02;3.70;;;;;;;28.23;33.46;99496.41;5277334;27;20048;-82
2021/05/11 18:33:46;;;;;;;4.85;3.10;;;;;;;28.21;34.10;99497.56;5277993;27;20088;-82
2021/05/11 18:38:55;;;;;;;5.30;3.55;;;;;;;27.46;33.80;99494.50;5279936;27;20565;-82
2021/05/11 18:41:21;;;;;;;7.43;3.65;;;;;;;27.42;33.39;99495.78;5281404;27;20471;-82
2021/05/11 18:43:49;;;;;;;5.25;3.08;;;;;;;27.17;33.84;99497.97;5280320;27;20112;-85
2021/05/11 18:46:16;;;;;;;6.90;3.65;;;;;;;27.22;34.17;99496.72;5281259;27;20025;-82
2021/05/11 18:48:43;;;;;;;12.75;3.90;;;;;;;27.05;35.38;99498.19;5279966;27;20030;-82
2021/05/11 18:51:10;;;;;;;13.75;4.10;;;;;;;27.06;35.31;99499.88;5277631;27;20041;-82
2021/05/11 18:53:37;;;;;;;14.60;4.53;;;;;;;27.07;34.40;99497.06;5270848;27;20084;-82
2021/05/11 18:56:04;;;;;;;7.75;3.90;;;;;;;26.98;34.87;99497.87;5276542;27;20053;-82
2021/05/11 18:58:31;;;;;;;9.73;3.67;;;;;;;26.84;34.80;99493.69;5277786;27;20112;-82
2021/05/11 19:00:59;;;;;;;8.38;3.90;;;;;;;26.61;35.99;99495.69;5277746;27;20058;-83
2021/05/11 19:03:28;;;;;;;11.07;4.07;;;;;;;26.77;35.41;99500.63;5276524;27;20083;-85
2021/05/11 19:05:54;;;;;;;10.70;3.67;;;;;;;26.88;35.60;99496.97;5276801;27;20053;-82
2021/05/11 19:08:21;;;;;;;17.35;5.25;;;;;;;27.06;35.26;99492.66;5277046;27;20065;-82
2021/05/11 19:10:48;;;;;;;16.48;4.53;;;;;;;26.01;38.90;99502.62;5276532;27;20121;-82
2021/05/11 19:13:15;;;;;;;8.30;4.07;;;;;;;25.72;39.43;99496.97;5274595;27;20065;-81
2021/05/11 19:15:42;;;;;;;5.18;3.65;;;;;;;25.94;38.91;99502.31;5276576;27;20064;-82
2021/05/11 19:18:08;;;;;;;5.18;3.67;;;;;;;25.85;39.24;99496.81;5276811;27;20084;-82
2021/05/11 19:20:35;;;;;;;11.07;4.22;;;;;;;24.68;42.24;99501.69;5276556;27;20054;-82
2021/05/11 19:23:05;;;;;;;9.57;3.50;;;;;;;25.37;40.13;99503.41;5276631;27;20065;-82
2021/05/11 19:25:32;;;;;;;10.75;4.55;;;;;;;25.51;39.76;99500.44;5277104;27;20085;-81
2021/05/11 19:28:04;;;;;;;8.32;3.80;;;;;;;25.53;40.28;99494.94;5276250;27;20060;-82
2021/05/11 19:30:31;;;;;;;13.65;7.28;;;;;;;25.35;40.02;99491.91;5276367;27;20057;-82
2021/05/11 19:33:01;;;;;;;14.30;6.60;;;;;;;25.29;38.39;99495.09;5276000;27;20093;-85
2021/05/11 19:35:28;;;;;;;11.38;5.68;;;;;;;25.34;38.95;99482.16;5278481;27;20061;-81
2021/05/11 19:37:55;;;;;;;18.95;11.93;;;;;;;25.36;37.71;99485.56;5278452;27;20057;-82
2021/05/11 19:40:22;;;;;;;19.98;10.55;;;;;;;25.35;38.92;99497.28;5278032;27;20061;-82
2021/05/11 19:42:51;;;;;;;13.32;9.13;;;;;;;25.39;38.20;99496.09;5278986;27;20061;-83
2021/05/11 19:45:19;;;;;;;15.77;9.27;;;;;;;25.37;38.74;99492.66;5278390;27;20064;-82
2021/05/11 19:47:46;;;;;;;14.30;8.30;;;;;;;25.40;39.36;99489.72;5278669;27;20459;-81
2021/05/11 19:50:13;;;;;;;8.90;6.35;;;;;;;25.35;39.84;99483.84;5280553;27;20046;-82
2021/05/11 19:52:42;;;;;;;8.52;5.50;;;;;;;25.33;40.36;99491.22;5278368;27;20058;-81
2021/05/11 19:55:14;;;;;;;10.48;6.03;;;;;;;25.16;40.02;99492.56;5280980;27;20021;-82
2021/05/11 19:57:40;;;;;;;13.50;6.68;;;;;;;24.91;40.88;99489.13;5280531;27;20078;-82
2021/05/11 20:00:08;;;;;;;9.60;5.68;;;;;;;25.04;40.08;99482.78;5280252;27;20068;-82
2021/05/11 20:02:36;;;;;;;9.75;6.00;;;;;;;24.90;40.35;99489.25;5278822;27;20113;-82
2021/05/11 20:05:05;;;;;;;8.18;5.00;;;;;;;24.77;41.12;99481.31;5278927;27;20053;-81
2021/05/11 20:07:32;;;;;;;9.80;5.87;;;;;;;25.03;40.89;99473.88;5279705;27;20058;-81
2021/05/11 20:09:59;;;;;;;7.95;4.22;;;;;;;24.60;42.86;99476.41;5277520;27;20061;-81
2021/05/11 20:12:28;;;;;;;8.45;5.25;;;;;;;24.23;42.22;99474.72;5277660;27;20075;-84
2021/05/11 20:14:56;;;;;;;10.98;5.22;;;;;;;24.02;42.76;99476.38;5280304;27;20387;-84
2021/05/11 20:17:23;;;;;;;11.02;6.43;;;;;;;23.76;43.23;99479.19;5278792;27;20049;-82
2021/05/11 20:19:50;;;;;;;10.90;5.20;;;;;;;23.75;42.65;99477.50;5278594;27;20081;-82
2021/05/11 20:22:17;;;;;;;7.05;4.80;;;;;;;23.83;42.76;99482.28;5278994;27;20090;-81
2021/05/11 20:24:44;;;;;;;7.43;4.90;;;;;;;23.84;42.40;99477.78;5278773;27;20561;-82
2021/05/11 20:27:16;;;;;;;7.97;4.85;;;;;;;23.89;41.83;99473.78;5278690;27;20660;-82
2021/05/11 20:29:43;;;;;;;9.70;4.68;;;;;;;23.95;42.68;99469.78;5279639;27;20053;-82
2021/05/11 20:32:10;;;;;;;10.18;4.03;;;;;;;23.85;43.18;99472.28;5276956;27;20116;-81
2021/05/11 20:35:01;;;;;;;7.40;4.65;;;;;;;23.54;43.84;99471.03;5278709;27;20058;-84
2021/05/11 20:37:28;;;;;;;10.32;5.15;;;;;;;23.50;43.57;99469.53;5278423;27;20060;-81
2021/05/11 20:39:54;;;;;;;10.50;4.18;;;;;;;23.40;42.61;99466.69;5279397;27;20065;-81
2021/05/11 20:42:21;;;;;;;7.32;4.80;;;;;;;23.25;43.22;99463.28;5278366;27;20073;-82
2021/05/11 20:44:48;;;;;;;6.53;3.72;;;;;;;23.27;43.27;99464.06;5277790;27;20053;-81
2021/05/11 20:47:15;;;;;;;6.60;3.95;;;;;;;23.31;42.92;99456.62;5277493;27;20033;-81
2021/05/11 20:49:42;;;;;;;12.10;5.07;;;;;;;23.50;42.61;99458.78;5277519;27;20133;-82
2021/05/11 20:52:09;;;;;;;7.82;4.80;;;;;;;21.67;49.52;99460.03;5279704;27;20128;-82
2021/05/11 20:54:36;;;;;;;13.88;5.28;;;;;;;22.67;46.64;99459.41;5272949;27;20026;-82
2021/05/11 20:57:03;;;;;;;7.95;4.78;;;;;;;22.72;46.29;99448.41;5279852;27;20733;-82
2021/05/11 20:59:30;;;;;;;7.70;4.90;;;;;;;22.68;46.57;99450.44;5278985;27;20259;-81
2021/05/11 21:01:57;;;;;;;9.18;5.18;;;;;;;22.39;47.49;99452.47;5276672;27;20493;-81
2021/05/11 21:04:25;;;;;;;6.78;5.20;;;;;;;22.49;47.55;99447.34;5277751;27;20115;-81
2021/05/11 21:06:52;;;;;;;11.32;5.20;;;;;;;22.11;48.58;99445.47;5279559;27;20110;-82
2021/05/11 21:09:20;;;;;;;10.90;5.15;;;;;;;21.96;49.02;99440.19;5278231;27;20061;-83
2021/05/11 21:11:47;;;;;;;14.00;8.45;;;;;;;21.81;48.33;99438.56;5279763;27;20113;-81
2021/05/11 21:14:13;;;;;;;11.60;6.95;;;;;;;21.80;48.84;99434.19;5270201;27;20067;-81
2021/05/11 21:16:41;;;;;;;19.48;6.30;;;;;;;21.69;48.56;99439.41;5280746;27;20124;-81
2021/05/11 21:19:08;;;;;;;9.90;5.50;;;;;;;21.88;47.06;99433.66;5278695;27;20442;-81
2021/05/11 21:21:36;;;;;;;7.57;5.05;;;;;;;21.40;48.87;99433.31;5277220;27;20121;-81
2021/05/11 21:24:03;;;;;;;8.60;5.72;;;;;;;21.47;48.40;99432.81;5278851;27;20068;-81
2021/05/11 21:26:31;;;;;;;9.32;4.62;;;;;;;21.55;47.35;99433.12;5278081;27;20054;-81
2021/05/11 21:28:58;;;;;;;10.02;6.12;;;;;;;21.61;47.13;99431.03;5277356;27;20724;-83
2021/05/11 21:31:25;;;;;;;11.52;5.78;;;;;;;21.67;47.98;99417.25;5278953;27;20136;-81
2021/05/11 21:33:52;;;;;;;8.30;6.32;;;;;;;21.60;48.15;99419.50;5277583;27;20427;-81
2021/05/11 21:36:18;;;;;;;9.35;5.65;;;;;;;21.67;48.10;99418.09;5279767;27;20061;-81
2021/05/11 21:38:45;;;;;;;16.95;5.55;;;;;;;21.82;47.79;99415.34;5277033;27;20117;-81
2021/05/11 21:41:12;;;;;;;14.80;5.78;;;;;;;21.60;47.29;99422.16;5278177;27;20141;-81
2021/05/11 21:43:39;;;;;;;12.73;5.93;;;;;;;21.68;48.45;99424.34;5278418;27;20321;-81
2021/05/11 21:46:06;;;;;;;8.93;5.68;;;;;;;21.66;48.28;99423.56;5258836;27;20101;-83
2021/05/11 21:48:33;;;;;;;9.93;5.07;;;;;;;21.59;48.55;99422.25;5275394;27;20080;-82
2021/05/11 21:51:00;;;;;;;7.43;4.70;;;;;;;21.53;47.33;99426.19;5277039;27;20115;-82
2021/05/11 21:53:28;;;;;;;7.62;5.05;;;;;;;21.22;47.28;99424.66;5277521;27;20112;-81
2021/05/11 21:55:55;;;;;;;7.82;4.18;;;;;;;21.10;48.14;99423.63;5277432;27;20028;-81
2021/05/11 21:58:22;;;;;;;6.37;4.07;;;;;;;21.05;48.51;99420.41;5278769;27;20061;-82
2021/05/11 22:00:49;;;;;;;10.65;5.53;;;;;;;21.39;47.21;99418.25;5277558;27;20058;-82
